Latest Weather Observations for Badgingarra

IDW60801

Issued at 10:43 pm WST Wednesday 8 July 2020 (issued every 10 minutes, with the page automatically refreshed every 10 minutes)

About weather observations | Map of weather stations | Latest weather observations for WA | Other Formats
Station Details ID: 009037 Name: BADGINGARRA RESEARCH STN Lat: -30.34 Lon: 115.54 Height: 275.0 m
Data from the previous 72 hours. | See also: Recent months at Badgingarra
Date/Time
WST
Temp
°C
App
Temp
°C
Dew
Point
°C
Rel
Hum
%
Delta-T
°C
Wind Press
QNH
hPa
Press
MSL
hPa
Rain since
9am
mm
Dir  Spd
km/h
Gust
km/h
Spd
kts
Gust
kts
08/10:30pm 8.7 6.4 7.3 91 0.7 SSE 9 9 5 5 - - -
08/10:00pm 9.6 7.4 8.0 90 0.8 SSE 9 11 5 6 - - -
08/09:30pm 10.8 8.2 9.2 90 0.8 S 13 17 7 9 - - -
08/09:00pm 10.8 7.9 9.7 93 0.6 SSE 15 17 8 9 - - -
08/08:30pm 11.3 8.9 10.2 93 0.6 SSE 13 17 7 9 - - -
08/08:00pm 11.3 8.6 10.2 93 0.6 S 15 19 8 10 - - -
08/07:30pm 11.0 8.1 9.8 92 0.6 S 15 19 8 10 - - -
08/07:00pm 10.9 8.4 9.7 92 0.6 SSW 13 15 7 8 - - -
08/06:30pm 11.2 8.3 9.5 89 0.9 SSW 15 15 8 8 - - -
08/06:00pm 11.0 7.8 8.4 84 1.3 SSW 15 17 8 9 - - -
08/05:30pm 12.4 9.2 8.5 77 2.0 SSW 15 17 8 9 - - -
08/05:00pm 13.5 10.9 9.2 75 2.2 S 13 19 7 10 - - -
08/04:30pm 14.1 11.1 9.1 72 2.6 S 15 17 8 9 - - -
08/04:00pm 14.9 13.5 9.7 71 2.7 S 7 9 4 5 - - -
08/03:30pm 14.9 13.7 10.3 74 2.4 SSW 7 9 4 5 - - -
08/03:00pm 14.4 13.2 10.2 76 2.2 SSE 7 11 4 6 - - -
08/02:30pm 14.4 13.5 10.8 79 1.9 S 6 9 3 5 - - -
08/02:00pm 14.7 12.7 10.1 74 2.4 SW 11 15 6 8 - - -
08/01:30pm 14.9 14.4 10.9 77 2.1 SSW 4 7 2 4 - - -
08/01:00pm 14.5 12.3 10.7 78 2.0 SSE 13 19 7 10 - - -
08/12:30pm 13.9 12.8 11.8 87 1.1 S 9 13 5 7 - - -
08/12:00pm 13.0 10.1 11.1 88 1.0 SSW 17 26 9 14 - - -
08/11:30am 14.4 13.9 10.6 78 2.0 SE 4 11 2 6 - - -
08/11:00am 13.4 12.4 10.9 85 1.3 ESE 7 13 4 7 - - -
08/10:30am 12.7 11.5 11.6 93 0.6 ESE 9 11 5 6 - - -
08/10:00am 12.2 11.6 12.2 100 0.0 SE 7 9 4 5 - - -
08/09:30am 11.9 12.5 11.9 100 0.0 CALM 0 0 0 0 - - -
08/09:00am 11.2 10.8 11.2 100 0.0 NE 4 6 2 3 - - -
08/08:30am 11.0 11.0 11.0 100 0.0 E 2 6 1 3 - - -
08/08:00am 10.4 9.4 10.4 100 0.0 S 6 7 3 4 - - -
08/07:30am 9.2 9.0 9.2 100 0.0 CALM 0 0 0 0 - - -
08/07:00am 9.5 8.3 9.5 100 0.0 N 6 6 3 3 - - -
08/06:30am 9.9 8.8 9.9 100 0.0 NNE 6 6 3 3 - - -
08/06:00am 10.3 9.7 10.3 100 0.0 N 4 4 2 2 - - -
08/05:30am 10.4 9.8 10.4 100 0.0 N 4 4 2 2 - - -
08/05:00am 10.4 10.6 10.4 100 0.0 CALM 0 0 0 0 - - -
08/04:30am 10.7 10.6 10.7 100 0.0 WNW 2 4 1 2 - - -
08/04:00am 10.4 10.6 10.4 100 0.0 CALM 0 0 0 0 - - -
08/03:30am 10.1 9.4 10.1 100 0.0 WSW 4 4 2 2 - - -
08/03:00am 9.7 9.3 9.7 100 0.0 NNE 2 4 1 2 - - -
08/02:30am 9.1 7.8 9.1 100 0.0 N 6 6 3 3 - - -
08/02:00am 8.9 7.5 8.9 100 0.0 N 6 7 3 4 - - -
08/01:30am 9.2 7.9 9.2 100 0.0 NNE 6 7 3 4 - - -
08/01:00am 8.5 7.0 8.5 100 0.0 N 6 7 3 4 - - -
08/12:30am 8.8 7.4 8.8 100 0.0 NNE 6 6 3 3 - - -
08/12:00am 9.3 8.0 9.3 100 0.0 NNE 6 7 3 4 - - -
 
Date/Time
WST
Temp
°C
App
Temp
°C
Dew
Point
°C
Rel
Hum
%
Delta-T
°C
Wind Press
QNH
hPa
Press
MSL
hPa
Rain since
9am
mm
Dir  Spd
km/h
Gust
km/h
Spd
kts
Gust
kts
07/11:30pm 9.2 7.7 9.1 99 0.0 N 7 7 4 4 - - -
07/11:00pm 9.7 8.3 8.9 95 0.4 N 6 7 3 4 - - -
07/10:30pm 10.7 9.6 9.9 95 0.4 NW 6 7 3 4 - - -
07/10:00pm 11.2 10.2 10.4 95 0.4 WNW 6 7 3 4 - - -
07/09:30pm 11.5 10.4 10.6 94 0.5 WNW 7 11 4 6 - - -
07/09:00pm 11.4 10.2 10.3 93 0.6 WNW 7 9 4 5 - - -
07/08:30pm 10.9 10.1 9.7 92 0.6 SSW 4 6 2 3 - - -
07/08:00pm 11.4 10.7 10.1 92 0.7 WNW 4 6 2 3 - - -
07/07:30pm 11.5 9.8 9.9 90 0.8 W 9 17 5 9 - - -
07/07:00pm 11.5 8.6 9.8 89 0.9 SW 15 20 8 11 - - -
07/06:30pm 12.2 9.9 10.3 88 1.0 SW 13 17 7 9 - - -
07/06:00pm 12.6 10.4 9.2 80 1.7 WSW 11 22 6 12 - - -
07/05:30pm 13.5 10.2 9.7 78 2.0 WSW 17 22 9 12 - - -
07/05:00pm 13.6 10.7 9.6 77 2.1 WSW 15 19 8 10 - - -
07/04:30pm 13.9 10.7 10.1 78 2.0 SW 17 22 9 12 - - -
07/04:00pm 14.8 12.0 8.7 67 3.1 WNW 13 24 7 13 - - -
07/03:30pm 15.5 12.4 8.7 64 3.5 WNW 15 22 8 12 - - -
07/03:00pm 14.4 10.6 9.0 70 2.8 W 19 22 10 12 - - -
07/02:30pm 15.8 12.9 9.5 66 3.3 WNW 15 26 8 14 - - -
07/02:00pm 14.5 11.8 8.9 69 2.9 W 13 19 7 10 - - -
07/01:30pm 14.4 11.0 9.0 70 2.8 W 17 22 9 12 - - -
07/01:00pm 14.7 11.0 8.0 64 3.4 WNW 17 32 9 17 - - -
07/12:30pm 14.6 11.7 8.1 65 3.3 NW 13 19 7 10 - - -
07/12:00pm 14.6 11.9 9.0 69 2.9 NW 13 19 7 10 - - -
07/11:30am 14.4 11.8 9.2 71 2.7 WNW 13 17 7 9 - - -
07/11:00am 13.9 11.1 8.5 70 2.7 W 13 22 7 12 - - -
07/10:30am 14.0 12.5 9.2 73 2.5 WNW 7 13 4 7 - - -
07/10:00am 14.1 12.6 9.3 73 2.5 NNW 7 11 4 6 - - -
07/09:30am 13.5 12.4 9.9 79 1.9 NW 6 9 3 5 - - -
07/09:00am 12.1 10.6 9.3 83 1.4 WNW 7 9 4 5 - - -
07/08:30am 11.2 10.4 9.8 91 0.7 NNW 4 6 2 3 - - -
07/08:00am 10.1 8.7 9.0 93 0.6 N 6 7 3 4 - - -
07/07:30am 10.1 8.6 9.0 93 0.6 NNE 7 9 4 5 - - -
07/07:00am 8.9 7.2 7.5 91 0.7 N 6 7 3 4 - - -
07/06:30am 10.0 8.3 8.3 89 0.8 NW 7 9 4 5 - - -
07/06:00am 10.0 8.8 8.1 88 0.9 N 4 6 2 3 - - -
07/05:30am 10.2 8.7 8.5 89 0.8 NNW 6 6 3 3 - - -
07/05:00am 10.3 8.7 8.6 89 0.8 NNW 7 9 4 5 - - -
07/04:30am 9.5 7.6 7.4 87 1.0 N 7 9 4 5 - - -
07/04:00am 9.6 7.7 7.7 88 0.9 NW 7 9 4 5 - - -
07/03:30am 8.8 7.3 6.9 88 0.9 NNE 4 4 2 2 - - -
07/03:00am 8.4 6.5 6.5 88 0.9 N 6 6 3 3 - - -
07/02:30am 7.6 6.6 5.7 88 0.9 CALM 0 0 0 0 - - -
07/02:00am 8.3 6.1 6.3 87 0.9 N 7 7 4 4 - - -
07/01:30am 9.2 7.3 6.8 85 1.1 N 6 7 3 4 - - -
07/01:00am 9.0 7.1 6.6 85 1.1 NNW 6 7 3 4 - - -
07/12:30am 9.6 7.7 6.7 82 1.4 NW 6 6 3 3 - - -
07/12:00am 9.4 7.3 6.7 83 1.3 WNW 7 7 4 4 - - -
 
Date/Time
WST
Temp
°C
App
Temp
°C
Dew
Point
°C
Rel
Hum
%
Delta-T
°C
Wind Press
QNH
hPa
Press
MSL
hPa
Rain since
9am
mm
Dir  Spd
km/h
Gust
km/h
Spd
kts
Gust
kts
06/11:30pm 8.7 6.5 6.2 84 1.2 WNW 7 9 4 5 - - -
06/11:00pm 8.9 6.4 6.5 85 1.1 W 9 9 5 5 - - -
06/10:30pm 8.5 6.3 6.1 85 1.1 W 7 9 4 5 - - -
06/10:00pm 9.0 6.9 6.6 85 1.1 W 7 9 4 5 - - -
06/09:30pm 9.5 6.8 7.3 86 1.1 W 11 13 6 7 - - -
06/09:00pm 9.4 7.0 7.2 86 1.1 W 9 11 5 6 - - -
06/08:30pm 9.7 7.4 7.5 86 1.1 W 9 11 5 6 - - -
06/08:00pm 10.3 8.5 8.1 86 1.1 W 7 11 4 6 - - -
06/07:30pm 10.7 8.5 7.9 83 1.4 W 9 13 5 7 - - -
06/07:00pm 11.5 9.7 8.0 79 1.7 W 7 11 4 6 - - -
06/06:30pm 10.8 8.9 7.5 80 1.6 WNW 7 9 4 5 - - -
06/06:00pm 11.6 9.8 7.9 78 1.8 WNW 7 9 4 5 - - -
06/05:30pm 12.8 9.9 8.1 73 2.4 WNW 13 19 7 10 - - -
06/05:00pm 14.2 10.6 8.2 67 3.0 W 17 22 9 12 - - -
06/04:30pm 15.1 10.2 8.3 64 3.5 W 24 35 13 19 - - -
06/04:00pm 15.2 10.7 8.7 65 3.3 W 22 35 12 19 - - -
06/03:30pm 16.3 11.0 8.3 59 4.1 WNW 26 35 14 19 - - -
06/03:00pm 16.8 12.2 9.5 62 3.9 W 24 35 13 19 - - -
06/02:30pm 16.3 10.8 9.0 62 3.8 W 28 35 15 19 - - -
06/02:00pm 17.4 11.9 9.1 58 4.4 W 28 41 15 22 - - -
06/01:30pm 17.3 11.8 9.0 58 4.4 WNW 28 39 15 21 - - -
06/01:00pm 17.5 11.9 8.6 56 4.6 W 28 37 15 20 - - -
06/12:30pm 17.1 10.5 7.7 54 4.8 WNW 32 41 17 22 - - -
06/12:00pm 17.3 11.8 9.0 58 4.4 WNW 28 43 15 23 - - -
06/11:30am 16.9 11.6 8.6 58 4.3 WNW 26 39 14 21 - - -
06/11:00am 16.7 11.5 8.9 60 4.1 WNW 26 37 14 20 - - -
06/10:30am 16.0 11.7 9.4 65 3.5 WNW 22 33 12 18 - - -
06/10:00am 15.4 12.4 10.8 74 2.5 W 17 22 9 12 - - -
06/09:30am 14.9 13.2 11.3 79 1.9 WNW 11 17 6 9 - - -
06/09:00am 14.1 12.4 11.1 82 1.6 WNW 11 15 6 8 - - -
06/08:30am 13.6 12.0 11.7 88 1.0 NW 11 15 6 8 - - -
06/08:00am 11.6 10.5 10.7 94 0.5 NW 7 9 4 5 - - -
06/07:30am 10.4 9.0 9.5 94 0.5 WNW 7 9 4 5 - - -
06/07:00am 10.6 9.3 9.8 95 0.4 WNW 7 9 4 5 - - -
06/06:30am 10.5 8.8 9.7 95 0.4 NW 9 13 5 7 - - -
06/06:00am 10.6 9.4 9.7 94 0.5 N 6 6 3 3 - - -
06/05:30am 11.4 10.3 10.5 94 0.5 NNW 7 9 4 5 - - -
06/05:00am 10.9 9.8 10.1 95 0.4 NNW 6 9 3 5 - - -
06/04:30am 11.2 10.2 10.3 94 0.5 N 6 7 3 4 - - -
06/04:00am 11.3 10.3 10.4 94 0.5 N 6 7 3 4 - - -
06/03:30am 11.2 10.2 10.3 94 0.5 N 6 7 3 4 - - -
06/03:00am 11.4 10.3 10.5 94 0.5 NNW 7 9 4 5 - - -
06/02:30am 11.2 10.2 10.3 94 0.5 N 6 7 3 4 - - -
06/02:00am 11.2 10.5 10.1 93 0.6 N 4 6 2 3 - - -
06/01:30am 11.5 10.5 10.4 93 0.6 S 6 6 3 3 - - -
06/01:00am 11.6 10.9 10.0 90 0.8 S 4 6 2 3 - - -
06/12:30am 12.5 12.7 10.7 89 0.9 CALM 0 0 0 0 - - -
06/12:00am 13.2 12.8 11.1 87 1.1 SW 4 6 2 3 - - -
 
Date/Time
WST
Temp
°C
App
Temp
°C
Dew
Point
°C
Rel
Hum
%
Delta-T
°C
Wind Press
QNH
hPa
Press
MSL
hPa
Rain since
9am
mm
Dir  Spd
km/h
Gust
km/h
Spd
kts
Gust
kts
05/11:30pm 13.8 12.2 11.5 86 1.2 SW 11 15 6 8 - - -
05/11:00pm 14.1 11.1 12.0 87 1.1 SW 19 24 10 13 - - -

Other formats

Comma delimited format used in spreadsheet applications
http://www.bom.gov.au/fwo/IDW60801/IDW60801.94603.axf

JavaScript Object Notation format (JSON) in row-major order
http://www.bom.gov.au/fwo/IDW60801/IDW60801.94603.json

Data quality

Most of these data are generated automatically and are frequently updated. Quality checks on data are not normally performed. It is possible for incorrect values to appear. Refer to information at About Latest Weather Observations and please check the disclaimer before using these data.